Time;durP1;ratioP1;P1;durP2;ratioP2;P2;SDS_P1;SDS_P2;PMS_P1;PMS_P2;Temp;Humidity;BMP_temperature;BMP_pressure;BME280_temperature;BME280_humidity;BME280_pressure;Samples;Min_cycle;Max_cycle;Signal;HPM_P1;HPM_P2
2022/05/13 00:00:09;;;;;;;9.07;3.03;;;15.40;95.60;;;;;;5057021;28;20039;-67
2022/05/13 00:02:35;;;;;;;6.90;2.80;;;15.30;95.90;;;;;;5083749;28;20047;-67
2022/05/13 00:05:02;;;;;;;8.73;3.00;;;15.30;96.00;;;;;;5072553;28;20457;-67
2022/05/13 00:07:27;;;;;;;7.57;3.20;;;15.30;95.90;;;;;;5062852;28;20028;-68
2022/05/13 00:10:05;;;;;;;9.45;2.88;;;15.20;95.80;;;;;;5080391;28;20025;-68
2022/05/13 00:12:38;;;;;;;6.03;3.08;;;15.20;95.80;;;;;;5060056;28;20386;-67
2022/05/13 00:15:10;;;;;;;10.60;3.22;;;15.10;95.60;;;;;;5055549;28;20033;-67
2022/05/13 00:17:35;;;;;;;6.93;3.00;;;15.10;95.50;;;;;;5052928;28;20063;-67
2022/05/13 00:20:02;;;;;;;8.13;3.63;;;15.10;96.20;;;;;;5056713;28;20036;-68
2022/05/13 00:22:28;;;;;;;6.32;2.10;;;15.00;95.60;;;;;;5056417;28;20021;-67
2022/05/13 00:24:54;;;;;;;6.38;2.42;;;15.00;95.30;;;;;;5060390;28;20035;-67
2022/05/13 00:27:21;;;;;;;4.60;2.17;;;15.00;95.70;;;;;;5058810;28;20112;-67
2022/05/13 00:29:46;;;;;;;8.43;2.80;;;15.00;95.50;;;;;;5060919;28;20469;-67
2022/05/13 00:32:12;;;;;;;9.07;2.50;;;15.00;95.80;;;;;;5062972;28;20047;-67
2022/05/13 00:34:38;;;;;;;7.97;2.08;;;15.00;95.60;;;;;;5060167;28;20367;-68
2022/05/13 00:37:03;;;;;;;9.85;2.63;;;14.90;95.80;;;;;;5060715;28;20024;-67
2022/05/13 00:39:29;;;;;;;8.35;2.20;;;14.90;95.30;;;;;;5074108;28;20017;-67
2022/05/13 00:41:54;;;;;;;7.13;2.28;;;14.80;95.40;;;;;;5061402;28;20037;-68
2022/05/13 00:44:21;;;;;;;4.32;2.10;;;14.80;95.70;;;;;;5061945;28;20075;-67
2022/05/13 00:46:48;;;;;;;6.07;1.88;;;14.80;95.80;;;;;;5060674;28;20025;-69
2022/05/13 00:49:16;;;;;;;8.07;2.15;;;14.80;95.40;;;;;;5061639;28;20465;-68
2022/05/13 00:51:45;;;;;;;7.00;1.90;;;14.70;95.70;;;;;;5061343;28;20062;-68
2022/05/13 00:54:13;;;;;;;8.15;1.85;;;14.60;95.30;;;;;;5060724;28;20063;-67
2022/05/13 00:56:43;;;;;;;9.38;1.60;;;14.60;95.10;;;;;;5068533;28;20024;-67
2022/05/13 00:59:12;;;;;;;6.22;2.10;;;14.50;95.50;;;;;;5060614;28;20048;-67
2022/05/13 01:01:38;;;;;;;7.05;1.80;;;14.60;95.70;;;;;;5059185;28;20029;-67
2022/05/13 01:04:08;;;;;;;2.15;1.27;;;14.60;95.30;;;;;;5062317;28;20033;-67
2022/05/13 01:06:34;;;;;;;5.88;1.98;;;14.60;95.30;;;;;;5059727;28;20369;-67
2022/05/13 01:09:00;;;;;;;4.80;1.48;;;14.60;95.30;;;;;;5060273;28;20021;-67
2022/05/13 01:11:30;;;;;;;3.08;1.52;;;14.60;95.10;;;;;;5059488;28;20033;-69
2022/05/13 01:14:01;;;;;;;8.07;1.60;;;14.60;95.60;;;;;;5062470;28;20091;-69
2022/05/13 01:16:27;;;;;;;6.38;1.63;;;14.60;95.00;;;;;;5077478;28;20024;-69
2022/05/13 01:18:53;;;;;;;8.25;1.73;;;14.60;95.00;;;;;;5060389;28;20069;-69
2022/05/13 01:21:25;;;;;;;4.85;1.40;;;14.60;95.30;;;;;;5067679;28;20012;-69
2022/05/13 01:23:52;;;;;;;4.68;1.52;;;14.50;95.50;;;;;;5061504;28;20017;-69
2022/05/13 01:26:22;;;;;;;6.80;1.58;;;14.50;95.10;;;;;;5059515;28;20021;-68
2022/05/13 01:28:50;;;;;;;6.10;1.50;;;14.50;94.90;;;;;;5061890;28;20025;-68
2022/05/13 01:31:43;;;;;;;8.13;1.52;;;14.60;95.00;;;;;;5060622;28;20029;-68
2022/05/13 01:34:12;;;;;;;6.13;1.30;;;14.60;95.10;;;;;;5061149;28;20090;-68
2022/05/13 01:36:39;;;;;;;5.05;1.60;;;14.60;95.20;;;;;;5072802;28;20051;-69
2022/05/13 01:39:05;;;;;;;6.88;1.92;;;14.50;95.30;;;;;;5075631;28;20031;-68
2022/05/13 01:41:31;;;;;;;3.55;1.20;;;14.60;94.90;;;;;;5075122;28;20036;-68
2022/05/13 01:43:57;;;;;;;5.35;1.67;;;14.50;95.30;;;;;;5075488;28;20025;-68
2022/05/13 01:46:24;;;;;;;7.85;1.55;;;14.50;95.10;;;;;;5074060;28;20357;-68
2022/05/13 01:48:50;;;;;;;7.43;1.17;;;14.50;95.20;;;;;;5062897;28;20096;-68
2022/05/13 01:51:16;;;;;;;4.55;1.75;;;14.40;95.10;;;;;;5055106;28;20025;-68
2022/05/13 01:53:42;;;;;;;6.28;1.52;;;14.30;95.40;;;;;;5074599;28;20043;-68
2022/05/13 01:56:08;;;;;;;8.23;1.95;;;14.30;95.60;;;;;;5066642;28;20017;-68
2022/05/13 01:58:34;;;;;;;4.65;1.42;;;14.20;95.50;;;;;;5054881;28;20076;-68
2022/05/13 02:01:03;;;;;;;10.85;2.08;;;14.30;96.00;;;;;;5055023;28;20049;-68
2022/05/13 02:03:44;;;;;;;7.00;2.15;;;14.30;95.80;;;;;;5053377;28;20420;-68
2022/05/13 02:06:16;;;;;;;6.75;1.88;;;14.30;95.50;;;;;;5054237;28;20033;-68
2022/05/13 02:08:42;;;;;;;9.77;1.73;;;14.40;95.60;;;;;;5053621;28;20027;-68
2022/05/13 02:11:09;;;;;;;8.05;1.90;;;14.30;95.90;;;;;;5055077;28;20400;-68
2022/05/13 02:13:35;;;;;;;12.90;2.17;;;14.30;96.40;;;;;;5072800;28;20070;-68
2022/05/13 02:16:03;;;;;;;7.78;2.30;;;14.40;96.10;;;;;;5074471;28;20028;-68
2022/05/13 02:18:28;;;;;;;8.98;1.80;;;14.40;96.50;;;;;;5069137;28;20021;-68
2022/05/13 02:20:55;;;;;;;6.57;2.05;;;14.40;96.20;;;;;;5054418;28;20091;-68
2022/05/13 02:23:21;;;;;;;6.20;1.67;;;14.40;95.70;;;;;;5054277;28;20087;-68
2022/05/13 02:25:48;;;;;;;9.68;2.03;;;14.30;97.20;;;;;;5054627;28;20025;-68
2022/05/13 02:28:14;;;;;;;8.57;2.33;;;14.30;96.50;;;;;;5054692;28;20496;-68
2022/05/13 02:30:40;;;;;;;12.73;2.40;;;14.20;96.80;;;;;;5062068;28;20028;-68
2022/05/13 02:33:06;;;;;;;11.55;2.55;;;14.20;97.20;;;;;;5065561;28;20362;-68
2022/05/13 02:35:33;;;;;;;6.72;2.25;;;14.20;96.40;;;;;;5057453;28;20021;-68
2022/05/13 02:37:59;;;;;;;5.47;1.75;;;14.30;96.50;;;;;;5054695;28;20082;-68
2022/05/13 02:41:11;;;;;;;8.57;2.05;;;14.20;96.80;;;;;;5056223;28;20017;-69
2022/05/13 02:43:12;;;;;;;7.40;1.85;;;14.30;96.80;;;;;;5073515;28;20052;-68
2022/05/13 02:45:38;;;;;;;7.38;1.75;;;14.20;97.30;;;;;;5073781;28;20077;-68
2022/05/13 02:48:04;;;;;;;6.78;1.77;;;14.20;96.90;;;;;;5074045;28;20035;-68
2022/05/13 02:50:30;;;;;;;7.88;2.03;;;14.20;96.90;;;;;;5074036;28;20024;-68
2022/05/13 02:52:55;;;;;;;8.77;2.30;;;14.20;96.70;;;;;;5074101;28;20127;-69
2022/05/13 02:55:21;;;;;;;8.25;1.98;;;14.10;97.10;;;;;;5073144;28;20024;-68
2022/05/13 02:57:47;;;;;;;11.05;1.83;;;14.10;97.70;;;;;;5071181;28;20423;-68
2022/05/13 03:00:13;;;;;;;8.85;2.10;;;14.10;97.40;;;;;;5057552;28;20029;-68
2022/05/13 03:02:39;;;;;;;6.43;2.05;;;14.00;97.70;;;;;;5052981;28;20500;-69
2022/05/13 03:05:06;;;;;;;7.03;1.70;;;14.00;97.00;;;;;;5058474;28;20025;-68
2022/05/13 03:07:32;;;;;;;4.55;1.63;;;14.00;97.70;;;;;;5053997;28;20032;-68
2022/05/13 03:09:58;;;;;;;8.85;1.90;;;14.10;96.90;;;;;;5072753;28;20025;-68
2022/05/13 03:12:24;;;;;;;6.68;2.08;;;14.10;97.50;;;;;;5073467;28;20071;-68
2022/05/13 03:14:49;;;;;;;6.50;1.85;;;14.10;97.30;;;;;;5053755;28;20064;-68
2022/05/13 03:17:15;;;;;;;4.32;2.00;;;14.10;97.50;;;;;;5053471;28;20161;-69
2022/05/13 03:19:40;;;;;;;8.73;2.25;;;14.00;97.90;;;;;;5053349;28;20021;-68
2022/05/13 03:22:06;;;;;;;6.72;2.00;;;13.90;97.70;;;;;;5053740;28;20040;-68
2022/05/13 03:24:32;;;;;;;6.80;2.40;;;13.90;97.80;;;;;;5052794;28;20043;-68
2022/05/13 03:26:59;;;;;;;4.75;2.03;;;13.90;97.60;;;;;;5053426;28;20017;-68
2022/05/13 03:29:24;;;;;;;7.63;2.03;;;13.90;98.30;;;;;;5060823;28;20056;-68
2022/05/13 03:31:50;;;;;;;6.97;2.03;;;14.00;97.90;;;;;;5072903;28;20495;-68
2022/05/13 03:34:16;;;;;;;7.30;2.15;;;14.00;97.60;;;;;;5072460;28;20036;-68
2022/05/13 03:36:41;;;;;;;6.25;1.85;;;14.00;98.30;;;;;;5070562;28;20086;-68
2022/05/13 03:39:07;;;;;;;5.85;2.35;;;14.00;97.60;;;;;;5073472;28;20384;-68
2022/05/13 03:41:33;;;;;;;5.50;2.10;;;14.00;98.50;;;;;;5073158;28;20469;-68
2022/05/13 03:43:59;;;;;;;6.80;1.88;;;14.00;99.10;;;;;;5073472;28;20043;-68
2022/05/13 03:46:25;;;;;;;8.68;1.85;;;14.00;97.90;;;;;;5072324;28;20099;-68
2022/05/13 03:48:50;;;;;;;9.18;2.50;;;14.00;98.20;;;;;;5072960;28;20101;-68
2022/05/13 03:51:16;;;;;;;5.90;2.17;;;14.00;98.10;;;;;;5073213;28;20020;-68
2022/05/13 03:53:42;;;;;;;13.65;2.85;;;14.00;98.30;;;;;;5072023;28;20036;-68
2022/05/13 03:56:08;;;;;;;13.45;2.83;;;13.90;98.60;;;;;;5072465;28;20376;-69
2022/05/13 03:58:34;;;;;;;12.07;2.50;;;13.90;98.60;;;;;;5072767;28;20070;-68
2022/05/13 04:01:02;;;;;;;8.35;2.58;;;13.90;98.40;;;;;;5072790;28;20419;-68
2022/05/13 04:03:28;;;;;;;8.98;2.65;;;14.00;98.80;;;;;;5071639;28;20107;-68
2022/05/13 04:11:27;;;;;;;13.60;2.47;;;13.90;99.10;;;;;;5071894;28;20043;-68
2022/05/13 04:16:37;;;;;;;14.23;2.65;;;13.90;99.20;;;;;;5070873;28;20093;-68
2022/05/13 04:19:04;;;;;;;6.78;2.85;;;13.80;99.80;;;;;;5072004;28;20036;-68
2022/05/13 04:21:32;;;;;;;13.02;3.33;;;13.80;99.50;;;;;;5072880;28;20354;-69
2022/05/13 04:24:01;;;;;;;7.68;3.00;;;13.70;99.50;;;;;;5054016;28;20021;-68
2022/05/13 04:26:27;;;;;;;8.55;3.08;;;13.70;99.60;;;;;;5052242;28;20025;-68
2022/05/13 04:28:54;;;;;;;14.90;2.85;;;13.70;99.90;;;;;;5052641;28;20485;-68
2022/05/13 04:31:29;;;;;;;9.90;2.42;;;13.80;99.30;;;;;;5064788;28;20036;-68
2022/05/13 04:33:56;;;;;;;10.02;2.67;;;13.70;99.70;;;;;;5060323;28;20131;-68
2022/05/13 04:36:23;;;;;;;12.82;2.72;;;13.80;99.80;;;;;;5061216;28;20112;-68
2022/05/13 04:38:49;;;;;;;8.80;2.33;;;13.80;99.90;;;;;;5051881;28;20504;-68
2022/05/13 04:44:01;;;;;;;11.13;2.35;;;13.80;99.90;;;;;;5052121;28;20556;-68
2022/05/13 04:46:26;;;;;;;11.45;2.65;;;13.80;99.90;;;;;;5052304;28;20104;-68
2022/05/13 04:48:53;;;;;;;15.65;3.00;;;13.70;99.90;;;;;;5052300;28;20021;-68
2022/05/13 04:51:20;;;;;;;8.25;2.67;;;13.80;99.70;;;;;;5052429;28;20049;-68
2022/05/13 04:53:48;;;;;;;10.88;2.90;;;13.80;99.90;;;;;;5072491;28;20064;-68
2022/05/13 04:56:13;;;;;;;10.07;2.67;;;13.80;99.80;;;;;;5067111;28;20457;-68
2022/05/13 04:58:41;;;;;;;12.10;2.78;;;13.80;99.90;;;;;;5052187;28;20168;-68
2022/05/13 05:01:08;;;;;;;10.70;2.55;;;13.80;99.90;;;;;;5051478;28;20022;-69
2022/05/13 05:03:37;;;;;;;10.00;2.40;;;13.80;99.90;;;;;;5051908;28;20025;-68
2022/05/13 05:06:04;;;;;;;10.60;3.20;;;13.80;99.90;;;;;;5061054;28;20021;-69
2022/05/13 05:08:30;;;;;;;8.38;2.75;;;13.80;99.90;;;;;;5050338;28;20033;-68
2022/05/13 05:10:57;;;;;;;8.38;2.97;;;13.80;99.90;;;;;;5052382;28;20033;-68
2022/05/13 05:13:30;;;;;;;12.43;2.95;;;13.70;99.90;;;;;;5071523;28;20085;-68
2022/05/13 05:15:57;;;;;;;11.48;3.00;;;13.80;99.90;;;;;;5076106;28;20362;-69
2022/05/13 05:18:23;;;;;;;11.32;3.00;;;13.70;99.90;;;;;;5056833;28;20477;-68
2022/05/13 05:20:49;;;;;;;14.65;3.22;;;13.80;99.90;;;;;;5058273;28;20532;-68
2022/05/13 05:23:18;;;;;;;13.43;2.70;;;13.80;99.90;;;;;;5056037;28;20110;-69
2022/05/13 05:25:45;;;;;;;10.68;2.75;;;13.90;99.90;;;;;;5055277;28;20481;-68
2022/05/13 05:28:11;;;;;;;14.40;3.35;;;14.00;99.90;;;;;;5055580;28;20028;-68
2022/05/13 05:30:38;;;;;;;10.80;2.40;;;14.00;99.90;;;;;;5062121;28;20021;-68
2022/05/13 05:33:04;;;;;;;7.90;2.25;;;14.10;99.90;;;;;;5073266;28;20036;-68
2022/05/13 05:35:30;;;;;;;9.45;2.88;;;14.20;99.90;;;;;;5063337;28;20024;-69
2022/05/13 05:37:56;;;;;;;9.23;3.00;;;14.20;99.90;;;;;;5055487;28;20108;-69
2022/05/13 05:40:22;;;;;;;11.75;2.53;;;14.20;99.90;;;;;;5059464;28;20552;-69
2022/05/13 05:42:48;;;;;;;12.63;2.88;;;14.10;99.90;;;;;;5074895;28;20032;-68
2022/05/13 05:45:16;;;;;;;9.27;2.63;;;14.20;99.90;;;;;;5075435;28;20386;-68
2022/05/13 05:47:41;;;;;;;14.50;2.75;;;14.30;99.90;;;;;;5075478;28;20024;-69
2022/05/13 05:50:10;;;;;;;10.82;3.13;;;14.40;99.90;;;;;;5073381;28;20021;-69
2022/05/13 05:52:36;;;;;;;7.50;2.90;;;14.30;99.90;;;;;;5064437;28;20114;-69
2022/05/13 05:58:10;;;;;;;11.07;2.55;;;14.50;99.90;;;;;;5059585;28;20072;-68
2022/05/13 06:00:38;;;;;;;8.13;3.00;;;14.60;99.90;;;;;;5054965;28;20017;-69
2022/05/13 06:03:04;;;;;;;12.38;3.33;;;14.60;99.90;;;;;;5056058;28;20528;-69
2022/05/13 06:05:30;;;;;;;10.50;2.78;;;14.70;99.90;;;;;;5064124;28;20025;-69
2022/05/13 06:08:00;;;;;;;12.15;3.47;;;14.70;99.90;;;;;;5075079;28;20032;-68
2022/05/13 06:10:27;;;;;;;13.20;2.83;;;14.80;99.90;;;;;;5073941;28;20052;-68
2022/05/13 06:12:53;;;;;;;12.02;3.08;;;14.70;99.90;;;;;;5074077;28;20058;-69
2022/05/13 06:15:20;;;;;;;8.75;2.53;;;14.70;99.90;;;;;;5073745;28;20084;-69
2022/05/13 06:17:48;;;;;;;7.82;2.83;;;14.70;99.90;;;;;;5062986;28;20378;-68
2022/05/13 06:20:15;;;;;;;11.10;2.67;;;14.80;99.90;;;;;;5054597;28;20032;-68
2022/05/13 06:22:41;;;;;;;10.07;2.72;;;14.80;99.90;;;;;;5054286;28;20017;-68
2022/05/13 06:25:12;;;;;;;10.05;2.83;;;14.80;99.90;;;;;;5052787;28;20362;-68
2022/05/13 06:27:38;;;;;;;12.10;3.25;;;14.90;99.90;;;;;;5054657;28;20025;-68
2022/05/13 06:30:09;;;;;;;12.55;3.47;;;15.00;99.90;;;;;;5056343;28;20051;-69
2022/05/13 06:32:35;;;;;;;13.70;4.07;;;15.00;99.90;;;;;;5073032;28;20041;-68
2022/05/13 06:35:01;;;;;;;8.73;2.90;;;15.10;99.90;;;;;;5069711;28;20028;-68
2022/05/13 06:37:27;;;;;;;9.00;2.80;;;15.10;99.90;;;;;;5063163;28;20020;-69
2022/05/13 06:39:52;;;;;;;12.10;3.33;;;15.20;99.90;;;;;;5068732;28;20033;-68
2022/05/13 06:42:18;;;;;;;15.80;3.67;;;15.40;99.90;;;;;;5058925;28;20032;-68
2022/05/13 06:44:43;;;;;;;11.55;3.53;;;15.40;99.90;;;;;;5062581;28;20033;-69
2022/05/13 06:47:09;;;;;;;13.80;2.97;;;15.50;99.90;;;;;;5056000;28;20378;-69
2022/05/13 06:49:35;;;;;;;14.85;3.67;;;15.50;99.90;;;;;;5059180;28;20033;-68
2022/05/13 06:52:03;;;;;;;14.52;3.58;;;15.50;99.90;;;;;;5065306;28;20027;-68
2022/05/13 06:54:29;;;;;;;10.15;3.55;;;15.60;99.90;;;;;;5064724;28;20103;-68
2022/05/13 06:56:54;;;;;;;15.98;3.20;;;15.70;99.90;;;;;;5064058;28;20448;-68
2022/05/13 06:59:21;;;;;;;10.20;3.75;;;15.70;99.90;;;;;;5062153;28;20020;-68
2022/05/13 07:01:47;;;;;;;12.57;3.50;;;15.80;99.90;;;;;;5061407;28;20417;-68
2022/05/13 07:04:13;;;;;;;11.70;3.95;;;15.90;99.90;;;;;;5060898;28;20056;-68
2022/05/13 07:06:39;;;;;;;18.05;3.65;;;15.90;99.90;;;;;;5068572;28;20369;-68
2022/05/13 07:09:04;;;;;;;18.95;4.32;;;16.10;99.90;;;;;;5063060;28;20350;-68
2022/05/13 07:11:30;;;;;;;10.05;3.47;;;16.10;99.90;;;;;;5065679;28;20024;-68
2022/05/13 07:13:56;;;;;;;10.90;3.53;;;16.20;99.90;;;;;;5061326;28;20466;-68
2022/05/13 07:16:22;;;;;;;10.75;4.18;;;16.20;99.90;;;;;;5063926;28;20040;-68
2022/05/13 07:18:48;;;;;;;17.95;4.45;;;16.20;99.90;;;;;;5068068;28;20154;-68
2022/05/13 07:21:15;;;;;;;13.35;4.30;;;16.30;99.90;;;;;;5066970;28;20059;-68
2022/05/13 07:23:41;;;;;;;11.57;3.72;;;16.40;99.90;;;;;;5063395;28;20684;-68
2022/05/13 07:26:06;;;;;;;14.35;4.30;;;16.40;99.90;;;;;;5068655;28;20112;-70
2022/05/13 07:28:33;;;;;;;13.80;3.75;;;16.40;99.90;;;;;;5064145;28;20048;-70
2022/05/13 07:31:00;;;;;;;14.13;4.32;;;16.40;99.90;;;;;;5066943;28;20366;-69
2022/05/13 07:33:28;;;;;;;14.25;4.45;;;16.50;99.90;;;;;;5062348;28;20090;-69
2022/05/13 07:35:54;;;;;;;12.57;4.43;;;16.50;99.90;;;;;;5066290;28;20557;-69
2022/05/13 07:38:20;;;;;;;11.85;3.38;;;16.70;99.90;;;;;;5065282;28;20025;-69
2022/05/13 07:43:30;;;;;;;16.10;3.78;;;16.70;99.90;;;;;;5068652;28;20040;-72
2022/05/13 07:45:55;;;;;;;16.90;4.05;;;16.80;99.90;;;;;;5064000;28;20032;-70
2022/05/13 07:48:21;;;;;;;12.00;4.63;;;16.90;99.90;;;;;;5067920;28;20028;-71
2022/05/13 07:50:47;;;;;;;9.25;3.95;;;16.90;99.90;;;;;;5066669;28;20089;-71
2022/05/13 07:53:13;;;;;;;13.82;3.83;;;17.00;99.90;;;;;;5067972;28;20068;-68
2022/05/13 07:55:38;;;;;;;11.50;4.10;;;17.10;99.90;;;;;;5073667;28;20404;-68
2022/05/13 07:58:04;;;;;;;7.40;3.55;;;17.20;99.90;;;;;;5068248;28;20175;-67
2022/05/13 08:00:32;;;;;;;15.88;3.92;;;17.30;99.90;;;;;;5074493;28;20024;-67
2022/05/13 08:03:05;;;;;;;13.13;3.80;;;17.50;99.90;;;;;;5073019;28;20100;-67
2022/05/13 08:05:33;;;;;;;13.70;4.22;;;17.60;99.70;;;;;;5067949;28;20035;-67
2022/05/13 08:08:01;;;;;;;12.45;4.55;;;17.60;99.90;;;;;;5067652;28;20099;-67
2022/05/13 08:10:27;;;;;;;20.15;4.60;;;17.70;99.90;;;;;;5067026;28;20056;-67
2022/05/13 08:12:52;;;;;;;14.52;4.47;;;17.60;99.30;;;;;;5071019;28;20153;-67
2022/05/13 08:15:19;;;;;;;12.52;4.32;;;17.60;99.30;;;;;;5070514;28;20025;-67
2022/05/13 08:17:45;;;;;;;12.27;4.28;;;17.70;99.60;;;;;;5060826;28;20078;-67
2022/05/13 08:20:11;;;;;;;13.02;4.18;;;17.90;99.60;;;;;;5062341;28;20028;-67
2022/05/13 08:22:36;;;;;;;17.38;4.43;;;17.80;98.80;;;;;;5061594;28;20468;-67
2022/05/13 08:25:02;;;;;;;13.27;4.70;;;17.90;98.70;;;;;;5060700;28;20017;-67
2022/05/13 08:27:28;;;;;;;11.02;4.30;;;18.20;98.30;;;;;;5061465;28;20031;-67
2022/05/13 08:29:53;;;;;;;11.50;4.35;;;18.30;97.90;;;;;;5060886;28;20024;-67
2022/05/13 08:32:19;;;;;;;10.45;4.20;;;18.20;98.40;;;;;;5062076;28;20032;-67
2022/05/13 08:34:45;;;;;;;16.63;4.30;;;18.10;98.60;;;;;;5061811;28;20052;-67
2022/05/13 08:37:10;;;;;;;11.70;4.18;;;18.20;98.50;;;;;;5060931;28;20438;-67
2022/05/13 08:39:36;;;;;;;12.60;4.35;;;18.20;98.20;;;;;;5067584;28;20086;-67
2022/05/13 08:42:17;;;;;;;13.50;4.22;;;18.10;97.80;;;;;;5066857;28;20064;-67
2022/05/13 08:44:43;;;;;;;13.35;4.43;;;18.00;98.60;;;;;;5055178;28;20021;-67
2022/05/13 08:47:54;;;;;;;10.10;3.95;;;18.20;98.00;;;;;;5056195;28;20032;-67
2022/05/13 08:50:50;;;;;;;14.75;4.30;;;18.50;97.60;;;;;;5059219;28;20075;-67
2022/05/13 08:53:40;;;;;;;15.02;4.28;;;18.80;97.10;;;;;;5071557;28;20048;-67
2022/05/13 08:56:09;;;;;;;10.73;4.38;;;19.10;96.40;;;;;;5075491;28;20048;-67
2022/05/13 08:58:53;;;;;;;14.45;4.53;;;19.20;96.20;;;;;;5076057;28;20100;-67
2022/05/13 09:01:28;;;;;;;10.38;3.83;;;19.40;95.80;;;;;;5061429;28;20028;-67
2022/05/13 09:04:00;;;;;;;11.57;4.53;;;19.70;95.80;;;;;;5065335;28;20027;-68
2022/05/13 09:06:39;;;;;;;14.98;4.30;;;19.70;95.70;;;;;;5074391;28;20032;-68
2022/05/13 09:09:07;;;;;;;12.48;4.22;;;19.80;95.20;;;;;;5064713;28;20020;-68
2022/05/13 09:11:42;;;;;;;12.35;4.07;;;20.00;95.20;;;;;;5060108;28;20453;-68
2022/05/13 09:14:24;;;;;;;8.82;4.45;;;20.00;95.40;;;;;;5075532;28;20035;-68
2022/05/13 09:17:12;;;;;;;12.87;4.10;;;20.00;93.90;;;;;;5054772;28;20111;-67
2022/05/13 09:20:00;;;;;;;14.90;4.07;;;19.80;94.40;;;;;;5054735;28;20068;-68
2022/05/13 09:22:38;;;;;;;10.75;3.15;;;19.60;94.10;;;;;;5059628;28;20024;-68
2022/05/13 09:25:05;;;;;;;12.63;3.55;;;19.40;94.60;;;;;;5065285;28;20384;-67
2022/05/13 09:27:47;;;;;;;10.25;3.53;;;19.50;94.70;;;;;;5091157;28;20469;-67
2022/05/13 09:30:18;;;;;;;5.22;3.00;;;19.70;94.90;;;;;;5073742;28;20016;-68
2022/05/13 09:32:44;;;;;;;11.40;3.90;;;19.40;94.40;;;;;;5081230;28;20020;-67
2022/05/13 09:35:13;;;;;;;8.20;3.15;;;19.40;94.20;;;;;;5068359;28;20029;-67
2022/05/13 09:37:42;;;;;;;8.32;2.97;;;19.60;94.70;;;;;;5083849;28;20028;-68
2022/05/13 09:40:16;;;;;;;8.93;3.33;;;19.60;94.70;;;;;;5089786;28;20778;-68
2022/05/13 09:42:44;;;;;;;9.90;3.00;;;19.70;94.70;;;;;;5084873;28;20043;-68
2022/05/13 09:45:26;;;;;;;6.00;2.92;;;19.80;94.10;;;;;;5079221;28;20089;-68
2022/05/13 09:47:59;;;;;;;7.55;2.55;;;19.90;93.00;;;;;;5091704;28;20016;-68
2022/05/13 09:50:32;;;;;;;4.85;2.47;;;19.90;93.30;;;;;;5061832;28;20025;-69
2022/05/13 09:53:07;;;;;;;4.55;2.65;;;19.90;93.10;;;;;;5078766;28;20047;-68
2022/05/13 09:55:37;;;;;;;6.68;2.78;;;19.90;92.70;;;;;;5063438;28;20108;-67
2022/05/13 09:58:05;;;;;;;6.97;2.25;;;20.00;92.60;;;;;;5070853;28;20138;-68
2022/05/13 10:00:37;;;;;;;9.13;2.13;;;20.10;92.30;;;;;;5084933;28;20019;-68
2022/05/13 10:03:21;;;;;;;5.07;2.05;;;20.10;92.00;;;;;;5081908;28;20020;-71
2022/05/13 10:06:17;;;;;;;6.63;2.28;;;20.00;91.70;;;;;;5079977;28;20108;-69
2022/05/13 10:08:56;;;;;;;8.27;2.30;;;19.90;92.40;;;;;;5084036;28;20024;-69
2022/05/13 10:14:31;;;;;;;6.22;2.53;;;19.70;92.60;;;;;;5067943;28;20078;-69
2022/05/13 10:17:02;;;;;;;7.38;2.00;;;19.60;92.70;;;;;;5079535;28;20032;-69
2022/05/13 10:20:08;;;;;;;8.80;2.15;;;19.50;92.60;;;;;;5063682;28;20107;-69
2022/05/13 10:22:46;;;;;;;4.90;1.90;;;19.60;92.80;;;;;;5065482;28;20024;-67
2022/05/13 10:25:15;;;;;;;6.45;1.83;;;19.80;92.90;;;;;;5064073;28;20430;-68
2022/05/13 10:27:54;;;;;;;4.10;1.45;;;19.80;92.00;;;;;;5059110;28;20036;-68
2022/05/13 10:30:31;;;;;;;10.43;1.60;;;19.90;92.00;;;;;;5065168;28;20055;-67
2022/05/13 10:33:31;;;;;;;5.78;1.73;;;20.00;92.50;;;;;;5083447;28;20096;-67
2022/05/13 10:36:08;;;;;;;4.93;1.65;;;20.00;92.00;;;;;;5076263;28;20044;-68
2022/05/13 10:38:46;;;;;;;7.43;1.50;;;19.90;92.30;;;;;;5083388;28;20096;-67
2022/05/13 10:41:36;;;;;;;4.07;1.80;;;19.90;91.90;;;;;;5087441;28;20250;-67
2022/05/13 10:44:23;;;;;;;5.45;1.65;;;20.00;92.40;;;;;;5061893;28;20039;-67
2022/05/13 10:46:53;;;;;;;5.40;1.90;;;20.20;92.20;;;;;;5085267;28;20024;-67
2022/05/13 10:49:19;;;;;;;7.90;1.65;;;20.40;91.00;;;;;;5078508;28;20048;-67
2022/05/13 10:51:57;;;;;;;10.25;2.03;;;20.40;91.40;;;;;;5064755;28;20067;-67
2022/05/13 10:54:35;;;;;;;4.88;1.50;;;20.50;90.90;;;;;;5089565;28;20024;-68
2022/05/13 10:57:13;;;;;;;7.15;1.80;;;20.50;90.80;;;;;;5079875;28;20051;-68
2022/05/13 10:59:50;;;;;;;6.60;1.80;;;20.40;90.50;;;;;;5075729;28;20037;-68
2022/05/13 11:02:19;;;;;;;5.45;1.42;;;20.50;91.50;;;;;;5087001;28;20474;-70
2022/05/13 11:05:07;;;;;;;9.95;2.33;;;20.60;90.70;;;;;;5082287;28;20021;-68
2022/05/13 11:07:35;;;;;;;5.43;2.03;;;21.00;91.20;;;;;;5076550;28;20028;-67
2022/05/13 11:10:20;;;;;;;3.60;1.50;;;21.40;90.80;;;;;;5075091;28;20123;-67
2022/05/13 11:12:52;;;;;;;5.40;1.83;;;21.30;89.10;;;;;;5070177;28;20040;-67
2022/05/13 11:15:55;;;;;;;8.40;1.73;;;21.10;88.70;;;;;;5072457;28;20031;-67
2022/05/13 11:18:39;;;;;;;4.50;1.38;;;21.00;90.20;;;;;;5071243;28;20039;-68
2022/05/13 11:21:28;;;;;;;5.22;1.75;;;20.90;89.20;;;;;;5067560;28;20024;-67
2022/05/13 11:27:21;;;;;;;5.60;1.80;;;20.70;87.70;;;;;;5067399;28;20055;-68
2022/05/13 11:29:53;;;;;;;7.72;2.00;;;21.00;89.50;;;;;;5074472;28;20094;-67
2022/05/13 11:32:36;;;;;;;6.82;1.65;;;21.40;89.00;;;;;;5070485;28;20054;-67
2022/05/13 11:35:21;;;;;;;4.28;1.35;;;21.50;87.30;;;;;;5062441;28;20046;-68
2022/05/13 11:37:55;;;;;;;7.45;1.60;;;21.30;87.60;;;;;;5060160;28;20373;-68
2022/05/13 11:40:23;;;;;;;4.88;1.67;;;21.20;89.00;;;;;;5060893;28;20051;-70
2022/05/13 11:43:18;;;;;;;6.28;1.83;;;21.30;90.10;;;;;;5071699;28;20469;-70
2022/05/13 11:45:53;;;;;;;6.38;1.73;;;21.60;89.60;;;;;;5066023;28;20047;-70
2022/05/13 11:48:26;;;;;;;7.72;2.05;;;21.80;86.30;;;;;;5073419;28;20051;-70
2022/05/13 11:51:11;;;;;;;7.45;2.03;;;21.50;87.80;;;;;;5072435;28;20029;-70
2022/05/13 11:53:42;;;;;;;4.45;1.55;;;21.60;90.40;;;;;;5066983;28;20037;-70
2022/05/13 11:56:26;;;;;;;5.15;1.75;;;21.90;89.00;;;;;;5072068;28;20052;-70
2022/05/13 11:59:01;;;;;;;4.22;1.83;;;22.10;87.50;;;;;;5079048;28;20472;-71
2022/05/13 12:01:38;;;;;;;6.15;2.13;;;22.10;88.40;;;;;;5073682;28;20048;-71
2022/05/13 12:04:12;;;;;;;6.40;2.25;;;22.20;86.60;;;;;;5071334;28;20370;-71
2022/05/13 12:06:50;;;;;;;5.88;1.77;;;22.10;88.70;;;;;;5067253;28;20472;-70
2022/05/13 12:09:37;;;;;;;3.38;1.67;;;21.90;87.20;;;;;;5073928;28;20021;-70
2022/05/13 12:12:02;;;;;;;5.78;1.35;;;21.90;86.60;;;;;;5072260;28;20111;-70
2022/05/13 12:14:30;;;;;;;12.55;2.38;;;21.90;88.70;;;;;;5068530;28;20119;-71
2022/05/13 12:17:46;;;;;;;4.40;2.03;;;21.90;88.10;;;;;;5072440;28;20087;-71
2022/05/13 12:20:30;;;;;;;3.67;1.70;;;21.90;87.10;;;;;;5046815;28;20466;-71
2022/05/13 12:23:03;;;;;;;5.20;1.60;;;22.00;86.80;;;;;;5068191;28;20086;-71
2022/05/13 12:25:34;;;;;;;9.90;1.95;;;22.20;88.00;;;;;;5072977;28;20040;-71
2022/05/13 12:28:04;;;;;;;3.08;1.63;;;22.20;86.30;;;;;;5068711;28;20107;-71
2022/05/13 12:30:39;;;;;;;4.15;1.77;;;21.90;87.20;;;;;;5073504;28;20078;-71
2022/05/13 12:33:20;;;;;;;8.98;2.35;;;21.60;86.00;;;;;;5066885;28;20124;-71
2022/05/13 12:38:35;;;;;;;6.00;2.20;;;21.70;89.00;;;;;;5074210;28;20079;-70
2022/05/13 12:41:17;;;;;;;5.00;2.13;;;21.70;88.10;;;;;;5066697;28;20128;-71
2022/05/13 12:44:08;;;;;;;5.85;1.75;;;21.80;88.60;;;;;;5071999;28;20086;-71
2022/05/13 12:46:49;;;;;;;3.80;1.50;;;21.80;88.10;;;;;;5059372;28;20040;-71
2022/05/13 12:49:20;;;;;;;6.00;1.83;;;22.00;89.10;;;;;;5071069;28;20424;-70
2022/05/13 12:52:09;;;;;;;7.63;2.08;;;22.00;87.40;;;;;;5074384;28;20376;-71
2022/05/13 12:55:12;;;;;;;7.00;2.15;;;21.70;86.90;;;;;;5070914;28;20081;-70
2022/05/13 12:57:40;;;;;;;;;;;21.90;87.90;;;;;;5072441;28;20036;-68
2022/05/13 13:00:14;;;;;;;5.35;2.35;;;22.10;87.50;;;;;;5072139;28;20283;-69
2022/05/13 13:02:42;;;;;;;6.68;1.88;;;22.10;86.30;;;;;;5074807;28;20039;-69
2022/05/13 13:05:34;;;;;;;5.72;2.13;;;22.30;86.60;;;;;;5065123;28;20027;-69
2022/05/13 13:08:16;;;;;;;8.10;2.33;;;22.30;87.00;;;;;;5072103;28;20040;-70
2022/05/13 13:11:03;;;;;;;9.70;2.30;;;22.40;87.00;;;;;;5066642;28;20053;-71
2022/05/13 13:13:49;;;;;;;5.57;2.08;;;22.60;86.80;;;;;;5072071;28;20071;-70
2022/05/13 13:16:40;;;;;;;4.82;2.40;;;22.80;86.30;;;;;;5067063;28;20066;-70
2022/05/13 13:19:08;;;;;;;4.05;2.25;;;22.90;86.30;;;;;;5071869;28;20017;-69
2022/05/13 13:21:33;;;;;;;6.15;1.90;;;23.00;86.00;;;;;;5069769;28;20099;-69
2022/05/13 13:24:00;;;;;;;6.82;1.95;;;23.00;85.40;;;;;;5068963;28;20119;-71
2022/05/13 13:26:26;;;;;;;7.15;1.90;;;22.80;84.60;;;;;;5066414;28;20025;-70